KBDL/BDL METAR and TAF weather

Enter ICAO airport designator
Station Type Date Time Source
KBDL METAR 2019/12/08 13:51 UTC NOAA

KBDL 081351Z 06003KT 10SM FEW200 FEW250 M09/M14 A3054 RMK AO2 SLP345 T10941144


Station Type Date Time Source
KBDL Decoded METAR 2019/12/08 13:51 UTC NOAA

BRADLEY INTERNATIONAL AIRPORT , CT, United States (KBDL) 41-56N 072-41W 60M
Dec 08, 2019 - 08:51 AM EST / 2019.12.08 1351 UTC
Wind: from the ENE (060 degrees) at 3 MPH (3 KT):0
Visibility: 10 mile(s):0
Sky conditions: mostly clear
Temperature: 15.1 F (-9.4 C)
Dew Point: 6.1 F (-14.4 C)
Relative Humidity: 66%
Pressure (altimeter): 30.54 in. Hg (1034 hPa)
ob: KBDL 081351Z 06003KT 10SM FEW200 FEW250 M09/M14 A3054 RMK AO2 SLP345 T10941144
cycle: 14

Station Type Date Time Source
KBDL TAF 2019/12/08 12:36 UTC NOAA

TAF KBDL 081134Z 0812/0918 VRB03KT P6SM FEW250
FM081900 19010KT P6SM BKN250
FM090600 19006KT P6SM -DZ OVC020
FM091100 18003KT 1 1/2SM BR VCSH OVC010
FM091700 00000KT 1 1/2SM -SHRA BR OVC005

Example: see airport list